sensor_id;sensor_type;location;lat;lon;timestamp;pressure;altitude;pressure_sealevel;temperature
19040;BMP180;9652;49.014;12.052;2023-08-20T00:01:26;98207.00;;;25.90
19040;BMP180;9652;49.014;12.052;2023-08-20T00:03:55;98211.00;;;25.90
19040;BMP180;9652;49.014;12.052;2023-08-20T00:06:23;98189.00;;;25.90
19040;BMP180;9652;49.014;12.052;2023-08-20T00:08:51;98212.00;;;25.90
19040;BMP180;9652;49.014;12.052;2023-08-20T00:11:19;98211.00;;;25.90
19040;BMP180;9652;49.014;12.052;2023-08-20T00:13:46;98180.00;;;25.90
19040;BMP180;9652;49.014;12.052;2023-08-20T00:16:14;98212.00;;;25.90
19040;BMP180;9652;49.014;12.052;2023-08-20T00:18:42;98183.00;;;25.90
19040;BMP180;9652;49.014;12.052;2023-08-20T00:21:10;98174.00;;;25.90
19040;BMP180;9652;49.014;12.052;2023-08-20T00:23:38;98186.00;;;25.90
19040;BMP180;9652;49.014;12.052;2023-08-20T00:26:05;98204.00;;;25.90
19040;BMP180;9652;49.014;12.052;2023-08-20T00:28:34;98200.00;;;25.80
19040;BMP180;9652;49.014;12.052;2023-08-20T00:31:04;98171.00;;;25.60
19040;BMP180;9652;49.014;12.052;2023-08-20T00:33:31;98201.00;;;25.80
19040;BMP180;9652;49.014;12.052;2023-08-20T00:35:59;98197.00;;;25.80
19040;BMP180;9652;49.014;12.052;2023-08-20T00:38:26;98200.00;;;25.90
19040;BMP180;9652;49.014;12.052;2023-08-20T00:40:54;98184.00;;;25.80
19040;BMP180;9652;49.014;12.052;2023-08-20T00:43:21;98200.00;;;25.90
19040;BMP180;9652;49.014;12.052;2023-08-20T00:45:50;98173.00;;;25.90
19040;BMP180;9652;49.014;12.052;2023-08-20T00:48:18;98182.00;;;25.90
19040;BMP180;9652;49.014;12.052;2023-08-20T00:50:45;98162.00;;;25.90
19040;BMP180;9652;49.014;12.052;2023-08-20T00:53:14;98172.00;;;25.90
19040;BMP180;9652;49.014;12.052;2023-08-20T00:55:42;98177.00;;;25.90
19040;BMP180;9652;49.014;12.052;2023-08-20T00:58:11;98175.00;;;25.90
19040;BMP180;9652;49.014;12.052;2023-08-20T01:00:38;98179.00;;;25.90
19040;BMP180;9652;49.014;12.052;2023-08-20T01:03:07;98175.00;;;25.90
19040;BMP180;9652;49.014;12.052;2023-08-20T01:05:44;98178.00;;;25.80
19040;BMP180;9652;49.014;12.052;2023-08-20T01:08:27;98136.00;;;25.80
19040;BMP180;9652;49.014;12.052;2023-08-20T01:11:05;98190.00;;;25.80
19040;BMP180;9652;49.014;12.052;2023-08-20T01:13:33;98197.00;;;25.80
19040;BMP180;9652;49.014;12.052;2023-08-20T01:16:00;98175.00;;;25.80
19040;BMP180;9652;49.014;12.052;2023-08-20T01:18:29;98190.00;;;25.80
19040;BMP180;9652;49.014;12.052;2023-08-20T01:21:02;98193.00;;;25.80
19040;BMP180;9652;49.014;12.052;2023-08-20T01:24:10;98198.00;;;25.80
19040;BMP180;9652;49.014;12.052;2023-08-20T01:27:03;98204.00;;;25.80
19040;BMP180;9652;49.014;12.052;2023-08-20T01:29:37;98210.00;;;25.80
19040;BMP180;9652;49.014;12.052;2023-08-20T01:32:05;98226.00;;;25.80
19040;BMP180;9652;49.014;12.052;2023-08-20T01:34:33;98217.00;;;25.80
19040;BMP180;9652;49.014;12.052;2023-08-20T01:37:00;98211.00;;;25.70
19040;BMP180;9652;49.014;12.052;2023-08-20T01:39:28;98224.00;;;25.70
19040;BMP180;9652;49.014;12.052;2023-08-20T01:41:55;98216.00;;;25.70
19040;BMP180;9652;49.014;12.052;2023-08-20T01:44:22;98184.00;;;25.70
19040;BMP180;9652;49.014;12.052;2023-08-20T01:46:50;98197.00;;;25.70
19040;BMP180;9652;49.014;12.052;2023-08-20T01:49:17;98219.00;;;25.70
19040;BMP180;9652;49.014;12.052;2023-08-20T01:51:44;98218.00;;;25.70
19040;BMP180;9652;49.014;12.052;2023-08-20T01:54:12;98222.00;;;25.70
19040;BMP180;9652;49.014;12.052;2023-08-20T01:56:39;98204.00;;;25.70
19040;BMP180;9652;49.014;12.052;2023-08-20T01:59:06;98221.00;;;25.70
19040;BMP180;9652;49.014;12.052;2023-08-20T02:01:33;98227.00;;;25.70
19040;BMP180;9652;49.014;12.052;2023-08-20T02:04:02;98237.00;;;25.70
19040;BMP180;9652;49.014;12.052;2023-08-20T02:06:29;98235.00;;;25.70
19040;BMP180;9652;49.014;12.052;2023-08-20T02:08:57;98225.00;;;25.70
19040;BMP180;9652;49.014;12.052;2023-08-20T02:11:24;98228.00;;;25.70
19040;BMP180;9652;49.014;12.052;2023-08-20T02:13:51;98223.00;;;25.60
19040;BMP180;9652;49.014;12.052;2023-08-20T02:16:18;98226.00;;;25.60
19040;BMP180;9652;49.014;12.052;2023-08-20T02:18:45;98226.00;;;25.60
19040;BMP180;9652;49.014;12.052;2023-08-20T02:21:13;98207.00;;;25.60
19040;BMP180;9652;49.014;12.052;2023-08-20T02:23:41;98200.00;;;25.60
19040;BMP180;9652;49.014;12.052;2023-08-20T02:26:08;98225.00;;;25.60
19040;BMP180;9652;49.014;12.052;2023-08-20T02:28:35;98221.00;;;25.60
19040;BMP180;9652;49.014;12.052;2023-08-20T02:31:04;98228.00;;;25.60
19040;BMP180;9652;49.014;12.052;2023-08-20T02:33:31;98241.00;;;25.50
19040;BMP180;9652;49.014;12.052;2023-08-20T02:36:01;98239.00;;;25.50
19040;BMP180;9652;49.014;12.052;2023-08-20T02:38:30;98234.00;;;25.50
19040;BMP180;9652;49.014;12.052;2023-08-20T02:40:57;98244.00;;;25.50
19040;BMP180;9652;49.014;12.052;2023-08-20T02:43:25;98242.00;;;25.50
19040;BMP180;9652;49.014;12.052;2023-08-20T02:45:52;98203.00;;;25.50
19040;BMP180;9652;49.014;12.052;2023-08-20T02:48:19;98215.00;;;25.50
19040;BMP180;9652;49.014;12.052;2023-08-20T02:50:46;98238.00;;;25.40
19040;BMP180;9652;49.014;12.052;2023-08-20T02:53:13;98207.00;;;25.40
19040;BMP180;9652;49.014;12.052;2023-08-20T02:55:41;98231.00;;;25.40
19040;BMP180;9652;49.014;12.052;2023-08-20T02:58:09;98249.00;;;25.40
19040;BMP180;9652;49.014;12.052;2023-08-20T03:00:36;98260.00;;;25.40
19040;BMP180;9652;49.014;12.052;2023-08-20T03:03:05;98226.00;;;25.30
19040;BMP180;9652;49.014;12.052;2023-08-20T03:05:35;98262.00;;;25.30
19040;BMP180;9652;49.014;12.052;2023-08-20T03:08:02;98233.00;;;25.30
19040;BMP180;9652;49.014;12.052;2023-08-20T03:10:31;98267.00;;;25.30
19040;BMP180;9652;49.014;12.052;2023-08-20T03:12:59;98261.00;;;25.20
19040;BMP180;9652;49.014;12.052;2023-08-20T03:15:27;98259.00;;;25.20
19040;BMP180;9652;49.014;12.052;2023-08-20T03:17:54;98258.00;;;25.20
19040;BMP180;9652;49.014;12.052;2023-08-20T03:20:21;98268.00;;;25.20
19040;BMP180;9652;49.014;12.052;2023-08-20T03:22:49;98259.00;;;25.20
19040;BMP180;9652;49.014;12.052;2023-08-20T03:25:16;98257.00;;;25.20
19040;BMP180;9652;49.014;12.052;2023-08-20T03:27:43;98251.00;;;25.10
19040;BMP180;9652;49.014;12.052;2023-08-20T03:30:12;98256.00;;;25.10
19040;BMP180;9652;49.014;12.052;2023-08-20T03:32:41;98239.00;;;25.10
19040;BMP180;9652;49.014;12.052;2023-08-20T03:35:09;98267.00;;;25.10
19040;BMP180;9652;49.014;12.052;2023-08-20T03:37:37;98268.00;;;25.10
19040;BMP180;9652;49.014;12.052;2023-08-20T03:40:05;98266.00;;;25.10
19040;BMP180;9652;49.014;12.052;2023-08-20T03:42:33;98267.00;;;25.10
19040;BMP180;9652;49.014;12.052;2023-08-20T03:45:00;98227.00;;;25.00
19040;BMP180;9652;49.014;12.052;2023-08-20T03:47:28;98263.00;;;25.00
19040;BMP180;9652;49.014;12.052;2023-08-20T03:49:55;98262.00;;;25.00
19040;BMP180;9652;49.014;12.052;2023-08-20T03:52:22;98257.00;;;25.00
19040;BMP180;9652;49.014;12.052;2023-08-20T03:54:49;98256.00;;;25.00
19040;BMP180;9652;49.014;12.052;2023-08-20T03:57:17;98254.00;;;25.00
19040;BMP180;9652;49.014;12.052;2023-08-20T03:59:44;98265.00;;;24.90
19040;BMP180;9652;49.014;12.052;2023-08-20T04:02:13;98258.00;;;24.60
19040;BMP180;9652;49.014;12.052;2023-08-20T04:04:42;98263.00;;;24.90
19040;BMP180;9652;49.014;12.052;2023-08-20T04:07:09;98261.00;;;24.80
19040;BMP180;9652;49.014;12.052;2023-08-20T04:09:36;98246.00;;;24.80
19040;BMP180;9652;49.014;12.052;2023-08-20T04:12:06;98253.00;;;24.80
19040;BMP180;9652;49.014;12.052;2023-08-20T04:14:33;98262.00;;;24.70
19040;BMP180;9652;49.014;12.052;2023-08-20T04:17:00;98249.00;;;24.70
19040;BMP180;9652;49.014;12.052;2023-08-20T04:19:27;98252.00;;;24.60
19040;BMP180;9652;49.014;12.052;2023-08-20T04:21:56;98241.00;;;24.60
19040;BMP180;9652;49.014;12.052;2023-08-20T04:24:23;98258.00;;;24.60
19040;BMP180;9652;49.014;12.052;2023-08-20T04:26:50;98254.00;;;24.50
19040;BMP180;9652;49.014;12.052;2023-08-20T04:29:24;98260.00;;;24.50
19040;BMP180;9652;49.014;12.052;2023-08-20T04:31:51;98267.00;;;24.50
19040;BMP180;9652;49.014;12.052;2023-08-20T04:34:18;98261.00;;;24.40
19040;BMP180;9652;49.014;12.052;2023-08-20T04:36:50;98263.00;;;24.40
19040;BMP180;9652;49.014;12.052;2023-08-20T04:39:19;98228.00;;;24.40
19040;BMP180;9652;49.014;12.052;2023-08-20T04:41:49;98264.00;;;24.40
19040;BMP180;9652;49.014;12.052;2023-08-20T04:44:18;98267.00;;;24.40
19040;BMP180;9652;49.014;12.052;2023-08-20T04:46:46;98248.00;;;24.40
19040;BMP180;9652;49.014;12.052;2023-08-20T04:49:14;98272.00;;;24.30
19040;BMP180;9652;49.014;12.052;2023-08-20T04:51:41;98268.00;;;24.30
19040;BMP180;9652;49.014;12.052;2023-08-20T04:54:08;98273.00;;;24.30
19040;BMP180;9652;49.014;12.052;2023-08-20T04:56:36;98272.00;;;24.40
19040;BMP180;9652;49.014;12.052;2023-08-20T04:59:03;98273.00;;;24.40
19040;BMP180;9652;49.014;12.052;2023-08-20T05:02:06;98280.00;;;24.40
19040;BMP180;9652;49.014;12.052;2023-08-20T05:04:39;98280.00;;;24.40
19040;BMP180;9652;49.014;12.052;2023-08-20T05:07:07;98238.00;;;24.40
19040;BMP180;9652;49.014;12.052;2023-08-20T05:09:34;98145.00;;;24.40
19040;BMP180;9652;49.014;12.052;2023-08-20T05:12:04;98283.00;;;24.40
19040;BMP180;9652;49.014;12.052;2023-08-20T05:14:31;98280.00;;;24.50
19040;BMP180;9652;49.014;12.052;2023-08-20T05:16:58;98285.00;;;24.50
19040;BMP180;9652;49.014;12.052;2023-08-20T05:19:25;98261.00;;;24.50
19040;BMP180;9652;49.014;12.052;2023-08-20T05:21:53;98274.00;;;24.50
19040;BMP180;9652;49.014;12.052;2023-08-20T05:24:21;98266.00;;;24.60
19040;BMP180;9652;49.014;12.052;2023-08-20T05:27:06;98293.00;;;24.40
19040;BMP180;9652;49.014;12.052;2023-08-20T05:29:34;98290.00;;;24.60
19040;BMP180;9652;49.014;12.052;2023-08-20T05:32:01;98300.00;;;24.70
19040;BMP180;9652;49.014;12.052;2023-08-20T05:34:28;98302.00;;;24.70
19040;BMP180;9652;49.014;12.052;2023-08-20T05:36:55;98305.00;;;24.70
19040;BMP180;9652;49.014;12.052;2023-08-20T05:39:23;98316.00;;;24.70
19040;BMP180;9652;49.014;12.052;2023-08-20T05:41:52;98294.00;;;24.80
19040;BMP180;9652;49.014;12.052;2023-08-20T05:44:20;98303.00;;;24.80
19040;BMP180;9652;49.014;12.052;2023-08-20T05:46:48;98294.00;;;24.90
19040;BMP180;9652;49.014;12.052;2023-08-20T05:49:17;98303.00;;;24.90
19040;BMP180;9652;49.014;12.052;2023-08-20T05:51:45;98307.00;;;25.00
19040;BMP180;9652;49.014;12.052;2023-08-20T05:54:12;98305.00;;;25.00
19040;BMP180;9652;49.014;12.052;2023-08-20T05:56:39;98278.00;;;25.10
19040;BMP180;9652;49.014;12.052;2023-08-20T05:59:06;98313.00;;;25.10
19040;BMP180;9652;49.014;12.052;2023-08-20T06:01:34;98316.00;;;25.20
19040;BMP180;9652;49.014;12.052;2023-08-20T06:04:02;98309.00;;;25.20
19040;BMP180;9652;49.014;12.052;2023-08-20T06:06:29;98310.00;;;25.30
19040;BMP180;9652;49.014;12.052;2023-08-20T06:08:56;98304.00;;;25.40
19040;BMP180;9652;49.014;12.052;2023-08-20T06:11:23;98309.00;;;25.40
19040;BMP180;9652;49.014;12.052;2023-08-20T06:13:50;98315.00;;;25.40
19040;BMP180;9652;49.014;12.052;2023-08-20T06:16:17;98314.00;;;25.50
19040;BMP180;9652;49.014;12.052;2023-08-20T06:18:46;98315.00;;;25.60
19040;BMP180;9652;49.014;12.052;2023-08-20T06:21:13;98320.00;;;25.70
19040;BMP180;9652;49.014;12.052;2023-08-20T06:23:40;98312.00;;;25.80
19040;BMP180;9652;49.014;12.052;2023-08-20T06:26:07;98310.00;;;25.80
19040;BMP180;9652;49.014;12.052;2023-08-20T06:28:34;98279.00;;;25.90
19040;BMP180;9652;49.014;12.052;2023-08-20T06:31:01;98235.00;;;26.00
19040;BMP180;9652;49.014;12.052;2023-08-20T06:33:29;98311.00;;;26.10
19040;BMP180;9652;49.014;12.052;2023-08-20T06:35:57;98314.00;;;26.10
19040;BMP180;9652;49.014;12.052;2023-08-20T06:38:24;98314.00;;;26.20
19040;BMP180;9652;49.014;12.052;2023-08-20T06:40:51;98281.00;;;26.30
19040;BMP180;9652;49.014;12.052;2023-08-20T06:43:19;98282.00;;;26.40
19040;BMP180;9652;49.014;12.052;2023-08-20T06:45:46;98272.00;;;26.50
19040;BMP180;9652;49.014;12.052;2023-08-20T06:48:13;98320.00;;;26.50
19040;BMP180;9652;49.014;12.052;2023-08-20T06:50:41;98316.00;;;26.60
19040;BMP180;9652;49.014;12.052;2023-08-20T06:53:10;98320.00;;;26.70
19040;BMP180;9652;49.014;12.052;2023-08-20T06:55:37;98324.00;;;26.80
19040;BMP180;9652;49.014;12.052;2023-08-20T06:58:04;98329.00;;;26.90
19040;BMP180;9652;49.014;12.052;2023-08-20T07:00:31;98300.00;;;26.90
19040;BMP180;9652;49.014;12.052;2023-08-20T07:02:58;98304.00;;;27.00
19040;BMP180;9652;49.014;12.052;2023-08-20T07:05:25;98341.00;;;27.10
19040;BMP180;9652;49.014;12.052;2023-08-20T07:07:52;98332.00;;;27.10
19040;BMP180;9652;49.014;12.052;2023-08-20T07:10:21;98326.00;;;27.20
19040;BMP180;9652;49.014;12.052;2023-08-20T07:12:48;98316.00;;;27.30
19040;BMP180;9652;49.014;12.052;2023-08-20T07:15:15;98346.00;;;27.40
19040;BMP180;9652;49.014;12.052;2023-08-20T07:17:42;98334.00;;;27.40
19040;BMP180;9652;49.014;12.052;2023-08-20T07:20:10;98337.00;;;27.50
19040;BMP180;9652;49.014;12.052;2023-08-20T07:22:37;98361.00;;;27.60
19040;BMP180;9652;49.014;12.052;2023-08-20T07:25:05;98347.00;;;27.60
19040;BMP180;9652;49.014;12.052;2023-08-20T07:27:32;98347.00;;;27.70
19040;BMP180;9652;49.014;12.052;2023-08-20T07:29:59;98321.00;;;27.80
19040;BMP180;9652;49.014;12.052;2023-08-20T07:32:26;98303.00;;;27.90
19040;BMP180;9652;49.014;12.052;2023-08-20T07:34:53;98337.00;;;27.90
19040;BMP180;9652;49.014;12.052;2023-08-20T07:37:20;98345.00;;;28.00
19040;BMP180;9652;49.014;12.052;2023-08-20T07:39:47;98328.00;;;28.10
19040;BMP180;9652;49.014;12.052;2023-08-20T07:42:15;98325.00;;;28.10
19040;BMP180;9652;49.014;12.052;2023-08-20T07:44:45;98340.00;;;28.20
19040;BMP180;9652;49.014;12.052;2023-08-20T07:47:12;98345.00;;;28.30
19040;BMP180;9652;49.014;12.052;2023-08-20T07:49:39;98353.00;;;28.40
19040;BMP180;9652;49.014;12.052;2023-08-20T07:52:06;98345.00;;;28.40
19040;BMP180;9652;49.014;12.052;2023-08-20T07:54:33;98336.00;;;28.50
19040;BMP180;9652;49.014;12.052;2023-08-20T07:57:00;98328.00;;;28.60
19040;BMP180;9652;49.014;12.052;2023-08-20T07:59:28;98329.00;;;28.60
19040;BMP180;9652;49.014;12.052;2023-08-20T08:01:57;98343.00;;;28.70
19040;BMP180;9652;49.014;12.052;2023-08-20T08:04:24;98345.00;;;28.70
19040;BMP180;9652;49.014;12.052;2023-08-20T08:06:51;98339.00;;;28.80
19040;BMP180;9652;49.014;12.052;2023-08-20T08:09:20;98331.00;;;28.90
19040;BMP180;9652;49.014;12.052;2023-08-20T08:11:48;98346.00;;;29.00
19040;BMP180;9652;49.014;12.052;2023-08-20T08:14:15;98347.00;;;29.00
19040;BMP180;9652;49.014;12.052;2023-08-20T08:16:42;98343.00;;;29.10
19040;BMP180;9652;49.014;12.052;2023-08-20T08:19:10;98347.00;;;29.20
19040;BMP180;9652;49.014;12.052;2023-08-20T08:21:38;98354.00;;;29.20
19040;BMP180;9652;49.014;12.052;2023-08-20T08:24:05;98349.00;;;29.30
19040;BMP180;9652;49.014;12.052;2023-08-20T08:26:34;98355.00;;;29.40
19040;BMP180;9652;49.014;12.052;2023-08-20T08:29:02;98337.00;;;29.40
19040;BMP180;9652;49.014;12.052;2023-08-20T08:31:29;98351.00;;;29.50
19040;BMP180;9652;49.014;12.052;2023-08-20T08:33:56;98358.00;;;29.50
19040;BMP180;9652;49.014;12.052;2023-08-20T08:36:25;98359.00;;;29.60
19040;BMP180;9652;49.014;12.052;2023-08-20T08:38:53;98357.00;;;29.60
19040;BMP180;9652;49.014;12.052;2023-08-20T08:41:22;98354.00;;;29.70
19040;BMP180;9652;49.014;12.052;2023-08-20T08:43:50;98361.00;;;29.80
19040;BMP180;9652;49.014;12.052;2023-08-20T08:46:17;98349.00;;;29.90
19040;BMP180;9652;49.014;12.052;2023-08-20T08:48:46;98356.00;;;29.90
19040;BMP180;9652;49.014;12.052;2023-08-20T08:51:14;98356.00;;;30.00
19040;BMP180;9652;49.014;12.052;2023-08-20T08:53:43;98360.00;;;30.10
19040;BMP180;9652;49.014;12.052;2023-08-20T08:56:10;98361.00;;;30.10
19040;BMP180;9652;49.014;12.052;2023-08-20T08:58:37;98318.00;;;30.20
19040;BMP180;9652;49.014;12.052;2023-08-20T09:01:05;98350.00;;;30.30
19040;BMP180;9652;49.014;12.052;2023-08-20T09:03:32;98364.00;;;30.40
19040;BMP180;9652;49.014;12.052;2023-08-20T09:06:00;98369.00;;;30.40
19040;BMP180;9652;49.014;12.052;2023-08-20T09:08:30;98360.00;;;30.50
19040;BMP180;9652;49.014;12.052;2023-08-20T09:11:01;98370.00;;;30.60
19040;BMP180;9652;49.014;12.052;2023-08-20T09:13:34;98363.00;;;30.60
19040;BMP180;9652;49.014;12.052;2023-08-20T09:16:05;98361.00;;;30.70
19040;BMP180;9652;49.014;12.052;2023-08-20T09:18:32;98374.00;;;30.80
19040;BMP180;9652;49.014;12.052;2023-08-20T09:21:00;98366.00;;;30.80
19040;BMP180;9652;49.014;12.052;2023-08-20T09:23:30;98267.00;;;30.90
19040;BMP180;9652;49.014;12.052;2023-08-20T09:26:02;98362.00;;;30.90
19040;BMP180;9652;49.014;12.052;2023-08-20T09:28:40;98368.00;;;31.00
19040;BMP180;9652;49.014;12.052;2023-08-20T09:31:08;98374.00;;;31.10
19040;BMP180;9652;49.014;12.052;2023-08-20T09:33:35;98369.00;;;31.10
19040;BMP180;9652;49.014;12.052;2023-08-20T09:36:04;98363.00;;;31.20
19040;BMP180;9652;49.014;12.052;2023-08-20T09:38:37;98376.00;;;31.20
19040;BMP180;9652;49.014;12.052;2023-08-20T09:41:08;98362.00;;;31.30
19040;BMP180;9652;49.014;12.052;2023-08-20T09:43:38;98370.00;;;31.40
19040;BMP180;9652;49.014;12.052;2023-08-20T09:46:06;98365.00;;;31.50
19040;BMP180;9652;49.014;12.052;2023-08-20T09:48:35;98370.00;;;31.50
19040;BMP180;9652;49.014;12.052;2023-08-20T09:51:11;98352.00;;;31.60
19040;BMP180;9652;49.014;12.052;2023-08-20T09:53:48;98367.00;;;31.60
19040;BMP180;9652;49.014;12.052;2023-08-20T09:56:26;98377.00;;;31.70
19040;BMP180;9652;49.014;12.052;2023-08-20T09:58:55;98366.00;;;31.80
19040;BMP180;9652;49.014;12.052;2023-08-20T10:01:24;98341.00;;;31.90
19040;BMP180;9652;49.014;12.052;2023-08-20T10:03:51;98353.00;;;31.90
19040;BMP180;9652;49.014;12.052;2023-08-20T10:06:19;98371.00;;;32.00
19040;BMP180;9652;49.014;12.052;2023-08-20T10:08:47;98373.00;;;32.00
19040;BMP180;9652;49.014;12.052;2023-08-20T10:11:15;98367.00;;;32.10
19040;BMP180;9652;49.014;12.052;2023-08-20T10:13:44;98368.00;;;32.20
19040;BMP180;9652;49.014;12.052;2023-08-20T10:16:12;98347.00;;;32.20
19040;BMP180;9652;49.014;12.052;2023-08-20T10:18:39;98367.00;;;32.30
19040;BMP180;9652;49.014;12.052;2023-08-20T10:21:08;98364.00;;;32.30
19040;BMP180;9652;49.014;12.052;2023-08-20T10:23:36;98364.00;;;32.40
19040;BMP180;9652;49.014;12.052;2023-08-20T10:26:08;98368.00;;;32.50
19040;BMP180;9652;49.014;12.052;2023-08-20T10:28:36;98367.00;;;32.50
19040;BMP180;9652;49.014;12.052;2023-08-20T10:31:07;98355.00;;;32.60
19040;BMP180;9652;49.014;12.052;2023-08-20T10:33:36;98361.00;;;32.70
19040;BMP180;9652;49.014;12.052;2023-08-20T10:36:14;98362.00;;;32.70
19040;BMP180;9652;49.014;12.052;2023-08-20T10:38:45;98360.00;;;32.80
19040;BMP180;9652;49.014;12.052;2023-08-20T10:41:12;98370.00;;;32.90
19040;BMP180;9652;49.014;12.052;2023-08-20T10:43:47;98365.00;;;32.90
19040;BMP180;9652;49.014;12.052;2023-08-20T10:46:18;98365.00;;;33.00
19040;BMP180;9652;49.014;12.052;2023-08-20T10:48:48;98372.00;;;33.00
19040;BMP180;9652;49.014;12.052;2023-08-20T10:51:19;98359.00;;;33.10
19040;BMP180;9652;49.014;12.052;2023-08-20T10:54:04;98365.00;;;33.20
19040;BMP180;9652;49.014;12.052;2023-08-20T10:56:41;98362.00;;;33.20
19040;BMP180;9652;49.014;12.052;2023-08-20T10:59:13;98358.00;;;33.30
19040;BMP180;9652;49.014;12.052;2023-08-20T11:01:44;98330.00;;;33.40
19040;BMP180;9652;49.014;12.052;2023-08-20T11:04:13;98347.00;;;33.40
19040;BMP180;9652;49.014;12.052;2023-08-20T11:06:42;98363.00;;;33.50
19040;BMP180;9652;49.014;12.052;2023-08-20T11:09:10;98343.00;;;33.20
19040;BMP180;9652;49.014;12.052;2023-08-20T11:11:39;98367.00;;;33.60
19040;BMP180;9652;49.014;12.052;2023-08-20T11:14:11;98350.00;;;33.60
19040;BMP180;9652;49.014;12.052;2023-08-20T11:16:44;98351.00;;;33.70
19040;BMP180;9652;49.014;12.052;2023-08-20T11:19:13;98351.00;;;33.70
19040;BMP180;9652;49.014;12.052;2023-08-20T11:21:42;98350.00;;;33.80
19040;BMP180;9652;49.014;12.052;2023-08-20T11:24:10;98346.00;;;33.90
19040;BMP180;9652;49.014;12.052;2023-08-20T11:26:40;98351.00;;;33.90
19040;BMP180;9652;49.014;12.052;2023-08-20T11:29:09;98353.00;;;33.90
19040;BMP180;9652;49.014;12.052;2023-08-20T11:31:37;98351.00;;;34.00
19040;BMP180;9652;49.014;12.052;2023-08-20T11:34:07;98349.00;;;34.00
19040;BMP180;9652;49.014;12.052;2023-08-20T11:36:35;98333.00;;;34.10
19040;BMP180;9652;49.014;12.052;2023-08-20T11:39:03;98338.00;;;34.10
19040;BMP180;9652;49.014;12.052;2023-08-20T11:41:31;98347.00;;;34.20
19040;BMP180;9652;49.014;12.052;2023-08-20T11:43:58;98345.00;;;34.20
19040;BMP180;9652;49.014;12.052;2023-08-20T11:46:25;98326.00;;;34.20
19040;BMP180;9652;49.014;12.052;2023-08-20T11:49:00;98339.00;;;34.30
19040;BMP180;9652;49.014;12.052;2023-08-20T11:51:29;98336.00;;;34.30
19040;BMP180;9652;49.014;12.052;2023-08-20T11:53:57;98329.00;;;34.40
19040;BMP180;9652;49.014;12.052;2023-08-20T11:56:26;98338.00;;;34.40
19040;BMP180;9652;49.014;12.052;2023-08-20T11:59:01;98334.00;;;34.40
19040;BMP180;9652;49.014;12.052;2023-08-20T12:01:31;98342.00;;;34.50
19040;BMP180;9652;49.014;12.052;2023-08-20T12:04:01;98335.00;;;34.50
19040;BMP180;9652;49.014;12.052;2023-08-20T12:06:30;98342.00;;;34.60
19040;BMP180;9652;49.014;12.052;2023-08-20T12:08:58;98319.00;;;34.60
19040;BMP180;9652;49.014;12.052;2023-08-20T12:11:25;98339.00;;;34.70
19040;BMP180;9652;49.014;12.052;2023-08-20T12:13:53;98322.00;;;34.70
19040;BMP180;9652;49.014;12.052;2023-08-20T12:16:23;98331.00;;;34.70
19040;BMP180;9652;49.014;12.052;2023-08-20T12:18:51;98329.00;;;34.80
19040;BMP180;9652;49.014;12.052;2023-08-20T12:21:18;98333.00;;;34.80
19040;BMP180;9652;49.014;12.052;2023-08-20T12:23:46;98323.00;;;34.90
19040;BMP180;9652;49.014;12.052;2023-08-20T12:26:14;98317.00;;;34.90
19040;BMP180;9652;49.014;12.052;2023-08-20T12:28:41;98322.00;;;34.90
19040;BMP180;9652;49.014;12.052;2023-08-20T12:31:08;98322.00;;;35.00
19040;BMP180;9652;49.014;12.052;2023-08-20T12:33:35;98313.00;;;35.00
19040;BMP180;9652;49.014;12.052;2023-08-20T12:36:03;98316.00;;;35.10
19040;BMP180;9652;49.014;12.052;2023-08-20T12:38:30;98317.00;;;35.10
19040;BMP180;9652;49.014;12.052;2023-08-20T12:41:03;98317.00;;;35.20
19040;BMP180;9652;49.014;12.052;2023-08-20T12:43:31;98302.00;;;35.20
19040;BMP180;9652;49.014;12.052;2023-08-20T12:45:58;98299.00;;;35.30
19040;BMP180;9652;49.014;12.052;2023-08-20T12:48:25;98302.00;;;35.30
19040;BMP180;9652;49.014;12.052;2023-08-20T12:50:52;98298.00;;;35.40
19040;BMP180;9652;49.014;12.052;2023-08-20T12:53:19;98300.00;;;35.40
19040;BMP180;9652;49.014;12.052;2023-08-20T12:55:47;98295.00;;;35.50
19040;BMP180;9652;49.014;12.052;2023-08-20T12:58:15;98284.00;;;35.60
19040;BMP180;9652;49.014;12.052;2023-08-20T13:00:43;98291.00;;;35.70
19040;BMP180;9652;49.014;12.052;2023-08-20T13:03:11;98288.00;;;35.70
19040;BMP180;9652;49.014;12.052;2023-08-20T13:05:39;98288.00;;;35.80
19040;BMP180;9652;49.014;12.052;2023-08-20T13:08:08;98284.00;;;35.90
19040;BMP180;9652;49.014;12.052;2023-08-20T13:10:38;98281.00;;;35.90
19040;BMP180;9652;49.014;12.052;2023-08-20T13:13:10;98287.00;;;35.90
19040;BMP180;9652;49.014;12.052;2023-08-20T13:15:39;98280.00;;;36.00
19040;BMP180;9652;49.014;12.052;2023-08-20T13:18:09;98286.00;;;36.10
19040;BMP180;9652;49.014;12.052;2023-08-20T13:20:36;98271.00;;;36.10
19040;BMP180;9652;49.014;12.052;2023-08-20T13:23:04;98264.00;;;36.20
19040;BMP180;9652;49.014;12.052;2023-08-20T13:25:31;98287.00;;;36.30
19040;BMP180;9652;49.014;12.052;2023-08-20T13:27:58;98281.00;;;36.30
19040;BMP180;9652;49.014;12.052;2023-08-20T13:30:25;98282.00;;;36.40
19040;BMP180;9652;49.014;12.052;2023-08-20T13:32:54;98285.00;;;36.50
19040;BMP180;9652;49.014;12.052;2023-08-20T13:35:22;98271.00;;;36.60
19040;BMP180;9652;49.014;12.052;2023-08-20T13:37:49;98281.00;;;36.80
19040;BMP180;9652;49.014;12.052;2023-08-20T13:40:16;98272.00;;;37.10
19040;BMP180;9652;49.014;12.052;2023-08-20T13:42:44;98266.00;;;37.40
19040;BMP180;9652;49.014;12.052;2023-08-20T13:45:11;98266.00;;;37.90
19040;BMP180;9652;49.014;12.052;2023-08-20T13:47:38;98273.00;;;38.40
19040;BMP180;9652;49.014;12.052;2023-08-20T13:50:07;98265.00;;;38.90
19040;BMP180;9652;49.014;12.052;2023-08-20T13:52:34;98266.00;;;39.40
19040;BMP180;9652;49.014;12.052;2023-08-20T13:55:01;98269.00;;;39.90
19040;BMP180;9652;49.014;12.052;2023-08-20T13:57:29;98267.00;;;40.40
19040;BMP180;9652;49.014;12.052;2023-08-20T13:59:56;98265.00;;;40.80
19040;BMP180;9652;49.014;12.052;2023-08-20T14:02:24;98268.00;;;41.20
19040;BMP180;9652;49.014;12.052;2023-08-20T14:04:51;98272.00;;;41.60
19040;BMP180;9652;49.014;12.052;2023-08-20T14:07:19;98268.00;;;41.80
19040;BMP180;9652;49.014;12.052;2023-08-20T14:09:46;98258.00;;;42.10
19040;BMP180;9652;49.014;12.052;2023-08-20T14:12:14;98270.00;;;42.30
19040;BMP180;9652;49.014;12.052;2023-08-20T14:14:42;98266.00;;;42.50
19040;BMP180;9652;49.014;12.052;2023-08-20T14:17:09;98274.00;;;42.60